Time;durP1;ratioP1;P1;durP2;ratioP2;P2;SDS_P1;SDS_P2;PMS_P1;PMS_P2;Temp;Humidity;BMP_temperature;BMP_pressure;BME280_temperature;BME280_humidity;BME280_pressure;Samples;Min_cycle;Max_cycle;Signal;HPM_P1;HPM_P2
2023/07/19 00:02:01;;;;;;;8.15;2.53;;;;;;;18.22;83.14;100400.88;8282408;28;20544;-62
2023/07/19 00:06:02;;;;;;;5.95;2.67;;;;;;;17.86;84.87;100400.00;8281104;28;20042;-61
2023/07/19 00:10:03;;;;;;;10.20;2.92;;;;;;;17.88;84.06;100403.41;8283861;28;20052;-61
2023/07/19 00:14:05;;;;;;;6.95;2.20;;;;;;;17.84;84.79;100410.25;8281427;28;20124;-61
2023/07/19 00:18:07;;;;;;;9.30;2.67;;;;;;;17.46;86.23;100403.22;8282525;28;20132;-61
2023/07/19 00:22:08;;;;;;;6.65;2.20;;;;;;;17.53;86.94;100404.16;8282299;28;20045;-61
2023/07/19 00:26:08;;;;;;;12.52;2.95;;;;;;;17.59;86.63;100396.06;8278323;28;20097;-61
2023/07/19 00:30:10;;;;;;;5.97;2.30;;;;;;;16.95;89.93;100398.56;8284481;28;20042;-61
2023/07/19 00:34:11;;;;;;;8.95;2.92;;;;;;;17.38;88.38;100386.84;8280429;28;20038;-61
2023/07/19 00:38:12;;;;;;;7.78;3.55;;;;;;;17.56;86.56;100390.97;8284025;28;20065;-61
2023/07/19 00:42:14;;;;;;;5.90;3.20;;;;;;;17.43;87.41;100396.25;8285302;28;20732;-61
2023/07/19 00:46:16;;;;;;;7.88;2.92;;;;;;;17.51;88.12;100395.31;8280000;28;20052;-61
2023/07/19 00:50:17;;;;;;;12.25;3.20;;;;;;;17.06;88.50;100396.25;8283937;28;20129;-62
2023/07/19 00:54:18;;;;;;;13.38;2.78;;;;;;;16.56;91.86;100390.50;8281393;28;20112;-61
2023/07/19 00:58:23;;;;;;;6.32;2.88;;;;;;;16.65;93.99;100383.13;8283465;28;20049;-61
2023/07/19 01:02:25;;;;;;;10.00;2.45;;;;;;;16.37;94.50;100376.47;8284712;28;20386;-61
2023/07/19 01:06:26;;;;;;;7.05;2.88;;;;;;;16.52;93.82;100364.63;8277026;28;20539;-62
2023/07/19 01:10:26;;;;;;;6.18;3.30;;;;;;;16.46;93.83;100372.69;8284848;28;20493;-61
2023/07/19 01:14:27;;;;;;;5.45;3.55;;;;;;;16.42;93.38;100363.13;8279346;28;20095;-62
2023/07/19 01:18:27;;;;;;;8.85;3.55;;;;;;;16.38;93.70;100359.09;8282514;28;20033;-61
2023/07/19 01:22:32;;;;;;;5.97;3.58;;;;;;;16.31;93.55;100355.38;8283437;28;20492;-61
2023/07/19 01:26:33;;;;;;;10.43;3.30;;;;;;;16.19;93.81;100345.91;8287664;28;20065;-61
2023/07/19 01:30:33;;;;;;;7.47;3.83;;;;;;;16.23;93.10;100339.94;8286534;28;20034;-61
2023/07/19 01:34:34;;;;;;;10.05;3.42;;;;;;;16.15;93.74;100341.84;8300313;28;20131;-61
2023/07/19 01:38:35;;;;;;;10.30;4.30;;;;;;;16.18;93.80;100334.16;8286809;28;20091;-61
2023/07/19 01:42:35;;;;;;;10.45;3.95;;;;;;;16.01;94.04;100343.44;8286893;28;20042;-61
2023/07/19 01:46:38;;;;;;;6.63;3.70;;;;;;;15.84;95.16;100333.69;8287901;28;20042;-62
2023/07/19 01:50:39;;;;;;;9.13;4.43;;;;;;;15.74;94.99;100336.63;8287447;28;20040;-61
2023/07/19 01:54:41;;;;;;;9.80;4.35;;;;;;;15.73;94.94;100333.25;8286151;28;20034;-61
2023/07/19 01:58:41;;;;;;;10.32;3.30;;;;;;;15.73;94.93;100327.78;8285757;28;20038;-61
2023/07/19 02:02:42;;;;;;;6.85;3.67;;;;;;;15.57;95.41;100315.94;8284991;28;20041;-62
2023/07/19 02:06:42;;;;;;;9.93;4.13;;;;;;;15.52;95.29;100318.34;8289373;28;20080;-61
2023/07/19 02:10:42;;;;;;;12.98;3.90;;;;;;;15.51;96.23;100308.47;8285181;28;20076;-62
2023/07/19 02:14:44;;;;;;;7.63;3.50;;;;;;;15.63;95.00;100317.09;8287347;28;20494;-62
2023/07/19 02:18:45;;;;;;;6.28;3.22;;;;;;;15.41;96.27;100317.88;8285868;28;20584;-62
2023/07/19 02:22:46;;;;;;;7.63;3.22;;;;;;;15.28;96.64;100318.38;8285473;28;20561;-61
2023/07/19 02:26:47;;;;;;;4.85;3.13;;;;;;;15.27;97.59;100322.16;8285391;28;20095;-62
2023/07/19 02:30:48;;;;;;;5.53;3.50;;;;;;;15.38;97.11;100319.09;8292587;28;20476;-61
2023/07/19 02:34:48;;;;;;;6.53;3.10;;;;;;;15.58;95.58;100308.59;8291287;28;20507;-62
2023/07/19 02:38:49;;;;;;;5.03;3.33;;;;;;;15.58;95.87;100304.00;8293036;28;20049;-62
2023/07/19 02:42:50;;;;;;;7.72;3.55;;;;;;;15.60;94.96;100309.28;8289949;28;20503;-63
2023/07/19 02:46:51;;;;;;;6.45;2.63;;;;;;;15.48;95.97;100302.50;8296952;28;20434;-63
2023/07/19 02:50:52;;;;;;;4.13;2.83;;;;;;;15.21;97.52;100305.66;8293140;28;20477;-63
2023/07/19 02:54:52;;;;;;;8.57;3.42;;;;;;;15.24;97.79;100300.72;8292184;28;20072;-62
2023/07/19 02:58:52;;;;;;;8.05;3.22;;;;;;;15.32;97.06;100305.28;8292222;28;20042;-63
2023/07/19 03:02:53;;;;;;;7.55;3.67;;;;;;;15.28;97.75;100307.50;8292460;28;20372;-63
2023/07/19 03:06:54;;;;;;;5.50;3.08;;;;;;;15.47;96.34;100311.72;8292876;28;20045;-63
2023/07/19 03:10:54;;;;;;;7.60;2.80;;;;;;;15.40;97.12;100311.56;8292631;28;20042;-63
2023/07/19 03:14:55;;;;;;;6.80;3.13;;;;;;;15.25;97.00;100312.47;8290366;28;20034;-63
2023/07/19 03:18:56;;;;;;;6.28;2.63;;;;;;;15.24;97.47;100317.06;8292157;28;20068;-63
2023/07/19 03:22:57;;;;;;;6.28;3.08;;;;;;;15.39;96.25;100309.88;8287154;28;20458;-62
2023/07/19 03:26:57;;;;;;;6.95;3.20;;;;;;;15.26;96.47;100314.16;8289920;28;20037;-63
2023/07/19 03:30:58;;;;;;;6.65;3.42;;;;;;;15.15;97.12;100312.66;8293672;28;20471;-63
2023/07/19 03:34:59;;;;;;;6.65;3.55;;;;;;;15.25;97.24;100323.34;8287097;28;20049;-62
2023/07/19 03:38:59;;;;;;;7.20;3.90;;;;;;;15.40;96.06;100327.91;8286815;28;20406;-63
2023/07/19 03:43:00;;;;;;;6.88;3.00;;;;;;;15.47;95.05;100325.34;8290820;28;20100;-63
2023/07/19 03:47:01;;;;;;;7.97;3.13;;;;;;;15.60;95.72;100337.38;8289495;28;20054;-63
2023/07/19 03:51:03;;;;;;;8.70;3.75;;;;;;;15.75;95.10;100340.19;8291297;28;20741;-63
2023/07/19 03:55:06;;;;;;;8.35;3.42;;;;;;;15.44;95.97;100342.03;8290841;28;20423;-63
2023/07/19 03:59:10;;;;;;;4.82;3.00;;;;;;;15.54;95.71;100335.38;8287609;28;20497;-63
2023/07/19 04:03:10;;;;;;;7.95;2.88;;;;;;;15.55;96.20;100337.06;8289391;28;20454;-62
2023/07/19 04:07:10;;;;;;;4.20;3.03;;;;;;;15.26;97.82;100341.38;8291493;28;20121;-63
2023/07/19 04:11:12;;;;;;;6.85;3.10;;;;;;;15.57;97.32;100340.47;8289180;28;20127;-62
2023/07/19 04:15:13;;;;;;;5.65;2.95;;;;;;;15.50;96.53;100341.34;8290816;28;20499;-63
2023/07/19 04:19:13;;;;;;;11.40;3.28;;;;;;;15.48;98.24;100340.66;8291063;28;20488;-63
2023/07/19 04:23:13;;;;;;;6.55;3.38;;;;;;;15.57;98.51;100350.50;8290541;28;20048;-63
2023/07/19 04:27:14;;;;;;;6.55;2.97;;;;;;;15.70;97.37;100340.72;8291123;28;20045;-63
2023/07/19 04:31:15;;;;;;;7.10;3.00;;;;;;;15.73;97.63;100340.38;8290896;28;20508;-64
2023/07/19 04:35:16;;;;;;;6.63;2.42;;;;;;;15.54;99.97;100340.81;8290405;28;20471;-63
2023/07/19 04:39:16;;;;;;;7.60;2.83;;;;;;;15.78;97.96;100348.03;8290824;28;20059;-63
2023/07/19 04:43:18;;;;;;;7.55;2.80;;;;;;;16.01;96.31;100342.63;8290059;28;20038;-63
2023/07/19 04:47:23;;;;;;;4.22;2.92;;;;;;;16.06;97.43;100340.19;8290743;28;20057;-63
2023/07/19 04:51:24;;;;;;;7.35;2.78;;;;;;;16.29;94.66;100349.25;8290187;28;20132;-63
2023/07/19 04:55:24;;;;;;;4.20;2.83;;;;;;;16.53;93.81;100349.09;8289413;28;20104;-62
2023/07/19 04:59:26;;;;;;;7.88;3.10;;;;;;;16.70;93.87;100345.19;8291766;28;20084;-63
2023/07/19 05:03:27;;;;;;;6.95;3.55;;;;;;;17.04;90.46;100342.81;8292166;28;20065;-63
2023/07/19 05:07:27;;;;;;;5.00;3.10;;;;;;;17.16;90.66;100341.31;8293413;28;20511;-63
2023/07/19 05:11:28;;;;;;;9.80;3.55;;;;;;;17.14;90.98;100343.41;8289807;28;20036;-63
2023/07/19 05:15:28;;;;;;;6.00;3.60;;;;;;;17.30;89.98;100343.22;8293468;28;20089;-63
2023/07/19 05:19:30;;;;;;;6.80;3.10;;;;;;;17.38;88.88;100349.44;8292465;28;20062;-63
2023/07/19 05:23:31;;;;;;;8.85;3.00;;;;;;;17.85;86.55;100362.75;8290119;28;22921;-63
2023/07/19 05:27:31;;;;;;;9.68;3.08;;;;;;;18.04;87.22;100364.88;8290596;28;20042;-63
2023/07/19 05:31:34;;;;;;;6.60;3.03;;;;;;;18.04;90.62;100369.50;8289698;28;20053;-63
2023/07/19 05:35:35;;;;;;;9.95;2.90;;;;;;;17.98;90.62;100381.19;8285843;28;20334;-63
2023/07/19 05:39:36;;;;;;;9.07;3.50;;;;;;;18.12;91.75;100373.00;8290375;28;20037;-63
2023/07/19 05:43:36;;;;;;;9.52;3.28;;;;;;;18.19;90.79;100370.31;8288749;28;20045;-63
2023/07/19 05:47:36;;;;;;;20.80;4.00;;;;;;;18.64;88.83;100362.63;8301266;28;20128;-63
2023/07/19 05:51:37;;;;;;;8.98;2.83;;;;;;;18.72;88.69;100367.97;8292813;28;20061;-63
2023/07/19 05:55:38;;;;;;;6.07;2.63;;;;;;;18.89;90.92;100366.66;8289489;28;20034;-62
2023/07/19 05:59:38;;;;;;;14.48;3.53;;;;;;;19.10;90.48;100374.84;8289980;28;20073;-61
2023/07/19 06:03:39;;;;;;;9.25;2.95;;;;;;;19.29;90.01;100352.25;8290586;28;20100;-61
2023/07/19 06:07:40;;;;;;;16.08;4.13;;;;;;;19.80;84.92;100354.63;8297225;28;20049;-61
2023/07/19 06:11:40;;;;;;;8.25;3.17;;;;;;;20.05;83.53;100359.41;8291737;28;20045;-61
2023/07/19 06:15:41;;;;;;;14.18;2.90;;;;;;;20.37;80.66;100364.16;8291794;28;20041;-62
2023/07/19 06:19:41;;;;;;;9.80;3.05;;;;;;;20.68;79.14;100352.63;8290567;28;20034;-56
2023/07/19 06:23:42;;;;;;;38.50;4.28;;;;;;;21.10;77.85;100360.47;8290873;28;20763;-60
2023/07/19 06:27:42;;;;;;;15.35;3.10;;;;;;;20.50;80.42;100363.34;8291209;28;20072;-61
2023/07/19 06:31:43;;;;;;;8.23;2.92;;;;;;;20.42;82.00;100360.78;8291502;28;20061;-61
2023/07/19 06:35:43;;;;;;;14.20;3.30;;;;;;;20.48;78.14;100343.47;8285750;28;20454;-61
2023/07/19 06:39:46;;;;;;;13.93;3.38;;;;;;;20.70;76.33;100358.72;8288016;28;20187;-61
2023/07/19 06:43:46;;;;;;;12.02;3.67;;;;;;;20.88;75.84;100350.72;8290546;28;20052;-62
2023/07/19 06:47:47;;;;;;;9.68;2.97;;;;;;;21.12;73.87;100347.34;8291198;28;20141;-61
2023/07/19 06:51:48;;;;;;;9.63;3.40;;;;;;;21.24;73.67;100351.16;8290544;28;20201;-61
2023/07/19 06:55:48;;;;;;;9.88;2.60;;;;;;;21.38;73.02;100352.84;8288500;28;20635;-63
2023/07/19 06:59:50;;;;;;;24.42;3.97;;;;;;;21.53;72.56;100350.66;8289673;28;20045;-61
2023/07/19 07:03:51;;;;;;;33.80;4.30;;;;;;;21.54;71.23;100357.88;8283929;28;20145;-61
2023/07/19 07:07:51;;;;;;;120.85;12.35;;;;;;;21.63;70.64;100362.09;8289602;28;20033;-61
2023/07/19 07:11:52;;;;;;;64.25;6.72;;;;;;;21.62;70.52;100338.38;8289436;28;20075;-61
2023/07/19 07:15:53;;;;;;;8.52;2.38;;;;;;;21.83;70.02;100351.88;8289176;28;20133;-61
2023/07/19 07:19:54;;;;;;;6.63;2.50;;;;;;;21.93;69.10;100352.28;8279712;28;20511;-61
2023/07/19 07:23:54;;;;;;;7.28;2.72;;;;;;;22.12;68.19;100351.34;8289110;28;20053;-61
2023/07/19 07:27:54;;;;;;;14.30;3.20;;;;;;;22.42;69.95;100346.94;8288431;28;20061;-61
2023/07/19 07:31:55;;;;;;;34.05;5.55;;;;;;;22.38;67.42;100353.94;8288021;28;20045;-61
2023/07/19 07:35:55;;;;;;;102.15;10.60;;;;;;;22.37;67.40;100354.19;8284264;28;20038;-62
2023/07/19 07:39:56;;;;;;;13.90;3.15;;;;;;;22.32;69.20;100357.59;8286342;28;20092;-62
2023/07/19 07:43:56;;;;;;;342.63;40.90;;;;;;;22.39;67.53;100363.06;8286966;28;20080;-61
2023/07/19 07:47:57;;;;;;;82.03;9.13;;;;;;;22.60;67.70;100360.84;8284588;28;20591;-62
2023/07/19 07:51:57;;;;;;;1999.90;439.02;;;;;;;22.66;66.08;100361.88;8288297;28;20121;-61
2023/07/19 07:55:58;;;;;;;9.15;2.35;;;;;;;22.90;65.56;100367.41;8288696;28;20563;-61
2023/07/19 07:59:58;;;;;;;94.53;10.68;;;;;;;22.64;66.16;100366.75;8281237;28;20042;-61
2023/07/19 08:03:59;;;;;;;149.73;17.20;;;;;;;22.73;66.78;100369.03;8285828;28;20046;-62
2023/07/19 08:08:01;;;;;;;93.13;12.63;;;;;;;22.65;66.12;100368.44;8287000;28;20099;-61
2023/07/19 08:12:02;;;;;;;10.43;2.63;;;;;;;22.65;67.38;100377.56;8282317;28;20038;-61
2023/07/19 08:16:07;;;;;;;185.45;23.13;;;;;;;22.53;66.89;100372.97;8285841;28;20069;-61
2023/07/19 08:20:09;;;;;;;27.00;4.47;;;;;;;22.42;66.55;100370.91;8283257;28;20034;-61
2023/07/19 08:24:11;;;;;;;20.35;4.38;;;;;;;22.40;67.00;100365.63;8285724;28;20045;-61
2023/07/19 08:28:11;;;;;;;12.77;2.90;;;;;;;22.54;67.52;100361.72;8284666;28;20030;-61
2023/07/19 08:32:12;;;;;;;22.42;3.90;;;;;;;22.66;66.98;100365.47;8288971;28;20062;-61
2023/07/19 08:36:13;;;;;;;19.95;4.05;;;;;;;22.53;65.65;100372.97;8292816;28;20049;-61
2023/07/19 08:40:15;;;;;;;43.28;7.03;;;;;;;22.59;68.15;100364.69;8293062;28;20227;-61
2023/07/19 08:44:16;;;;;;;16.15;3.25;;;;;;;22.63;66.47;100371.41;8292414;28;20492;-61
2023/07/19 08:48:17;;;;;;;9.48;2.90;;;;;;;22.72;65.74;100356.31;8292419;28;20447;-61
2023/07/19 08:52:17;;;;;;;12.68;3.35;;;;;;;22.94;67.31;100368.66;8290923;28;20040;-63
2023/07/19 08:56:20;;;;;;;10.35;2.88;;;;;;;22.97;66.37;100368.19;8290796;28;20125;-61
2023/07/19 09:00:21;;;;;;;17.38;2.97;;;;;;;22.72;67.14;100364.56;8291451;28;20139;-61
2023/07/19 09:04:22;;;;;;;11.30;2.28;;;;;;;22.83;66.92;100363.88;8291746;28;20048;-61
2023/07/19 09:08:34;;;;;;;41.15;4.93;;;;;;;23.06;66.69;100372.38;8291430;28;20508;-61
2023/07/19 09:12:37;;;;;;;11.15;2.67;;;;;;;22.92;66.56;100364.44;8288476;28;20045;-61
2023/07/19 09:16:39;;;;;;;5.83;2.53;;;;;;;23.18;66.48;100353.19;8290769;28;20072;-61
2023/07/19 09:20:39;;;;;;;14.27;3.50;;;;;;;23.25;66.05;100351.25;8291530;28;20042;-61
2023/07/19 09:24:53;;;;;;;9.13;2.80;;;;;;;23.45;67.26;100353.81;8290575;28;20111;-62
2023/07/19 09:28:55;;;;;;;5.88;2.60;;;;;;;23.68;67.61;100354.81;8287528;28;20049;-61
2023/07/19 09:32:58;;;;;;;8.82;3.17;;;;;;;24.11;65.48;100343.72;8290279;28;20058;-61
2023/07/19 09:36:59;;;;;;;17.40;3.08;;;;;;;24.57;62.55;100349.44;8290470;28;20318;-61
2023/07/19 09:41:00;;;;;;;6.15;2.58;;;;;;;24.27;62.23;100343.06;8290697;28;20116;-61
2023/07/19 09:45:03;;;;;;;20.77;2.80;;;;;;;24.47;60.65;100350.03;8289332;28;20495;-61
2023/07/19 09:49:04;;;;;;;10.52;2.67;;;;;;;24.36;61.19;100352.72;8290901;28;20037;-61
2023/07/19 09:53:09;;;;;;;5.53;2.63;;;;;;;24.16;61.19;100349.38;8289584;28;20563;-61
2023/07/19 09:57:11;;;;;;;9.30;2.80;;;;;;;24.27;61.88;100348.59;8289973;28;20041;-63
2023/07/19 10:01:13;;;;;;;7.97;2.90;;;;;;;24.49;61.65;100352.56;8289304;28;20530;-63
2023/07/19 10:05:14;;;;;;;6.45;2.40;;;;;;;24.95;60.14;100345.22;8290224;28;20064;-62
2023/07/19 10:13:56;;;;;;;12.18;2.88;;;;;;;24.75;61.52;100357.69;8400577;27;20947;-62
2023/07/19 10:17:58;;;;;;;9.70;3.17;;;;;;;24.62;62.10;100342.13;8396810;27;20043;-63
2023/07/19 10:22:06;;;;;;;8.18;2.78;;;;;;;24.58;61.82;100345.63;8396354;27;20119;-62
2023/07/19 10:26:09;;;;;;;6.25;1.83;;;;;;;26.36;57.77;100345.75;8396350;27;20037;-63
2023/07/19 10:30:10;;;;;;;5.93;2.60;;;;;;;26.84;53.77;100348.94;8400978;27;20411;-62
2023/07/19 10:34:11;;;;;;;5.97;1.80;;;;;;;26.66;55.27;100352.75;8396296;28;20101;-62
2023/07/19 10:38:28;;;;;;;6.88;2.33;;;;;;;26.41;55.63;100352.22;8395142;28;20749;-62
2023/07/19 10:42:29;;;;;;;11.93;2.03;;;;;;;26.24;55.78;100348.56;8404363;27;20032;-62
2023/07/19 10:46:30;;;;;;;14.75;2.60;;;;;;;26.44;55.19;100354.50;8395336;28;20073;-62
2023/07/19 10:50:30;;;;;;;8.70;2.35;;;;;;;27.40;53.69;100334.91;8395071;28;20044;-63
2023/07/19 10:54:30;;;;;;;14.95;2.78;;;;;;;26.66;54.73;100336.09;8403598;27;21317;-63
2023/07/19 10:58:31;;;;;;;7.00;1.63;;;;;;;27.94;52.65;100328.50;8397047;28;20503;-63
2023/07/19 11:02:31;;;;;;;8.13;2.10;;;;;;;28.86;51.15;100326.50;8397064;27;20423;-63
2023/07/19 11:06:33;;;;;;;16.25;3.13;;;;;;;28.44;51.03;100334.66;8398918;28;20044;-63
2023/07/19 11:10:35;;;;;;;9.30;2.30;;;;;;;29.03;50.26;100321.63;8396881;28;20406;-63
2023/07/19 11:14:41;;;;;;;5.40;2.10;;;;;;;29.32;49.81;100324.94;8390732;28;20041;-63
2023/07/19 11:18:42;;;;;;;6.53;2.35;;;;;;;32.09;47.39;100314.94;8392683;27;20090;-62
2023/07/19 11:22:42;;;;;;;26.70;2.97;;;;;;;30.87;46.87;100317.31;8384352;27;20186;-62
2023/07/19 11:26:51;;;;;;;19.05;4.03;;;;;;;28.75;49.82;100319.13;8372820;28;20431;-62
2023/07/19 11:30:53;;;;;;;5.85;1.80;;;;;;;29.74;50.13;100307.16;8376608;27;20355;-63
2023/07/19 11:34:55;;;;;;;5.38;1.73;;;;;;;30.68;47.22;100312.50;8369506;28;20393;-62
2023/07/19 11:38:56;;;;;;;27.52;4.32;;;;;;;31.48;45.68;100301.38;8371654;28;20414;-62
2023/07/19 11:42:57;;;;;;;6.25;2.08;;;;;;;32.27;46.37;100293.84;8371544;28;20036;-62
2023/07/19 11:46:58;;;;;;;53.97;5.18;;;;;;;31.83;45.09;100282.56;8377390;28;20451;-62
2023/07/19 11:50:58;;;;;;;85.23;8.57;;;;;;;32.13;45.76;100292.78;8372932;28;20044;-63
2023/07/19 11:54:59;;;;;;;41.00;4.38;;;;;;;32.38;44.81;100295.47;8371044;28;20770;-63
2023/07/19 11:58:59;;;;;;;13.40;2.55;;;;;;;32.17;44.31;100299.50;8371823;28;20041;-63
2023/07/19 12:03:01;;;;;;;49.70;3.78;;;;;;;31.13;45.66;100295.81;8375593;28;20067;-63
2023/07/19 12:07:03;;;;;;;29.80;4.60;;;;;;;29.39;49.09;100295.75;8371065;28;20055;-63
2023/07/19 12:11:03;;;;;;;27.85;3.78;;;;;;;28.95;50.09;100308.19;8373242;28;20170;-63
2023/07/19 12:15:08;;;;;;;27.58;2.67;;;;;;;28.46;49.78;100301.91;8367125;28;20048;-63
2023/07/19 12:19:11;;;;;;;77.18;6.47;;;;;;;27.69;51.84;100291.16;8372084;28;20449;-63
2023/07/19 12:23:11;;;;;;;8.32;1.85;;;;;;;27.99;51.55;100286.03;8371336;28;20036;-63
2023/07/19 12:27:11;;;;;;;12.50;1.60;;;;;;;27.49;51.34;100296.41;8369830;28;20545;-62
2023/07/19 12:31:12;;;;;;;31.25;3.20;;;;;;;27.73;51.30;100292.31;8376089;28;20274;-62
2023/07/19 12:35:12;;;;;;;46.05;2.83;;;;;;;27.44;51.33;100290.81;8369284;28;20041;-63
2023/07/19 12:39:14;;;;;;;8.98;1.50;;;;;;;27.16;52.48;100290.88;8369557;28;20569;-63
2023/07/19 12:43:14;;;;;;;7.15;1.33;;;;;;;27.41;50.59;100289.34;8369757;28;20040;-62
2023/07/19 12:47:15;;;;;;;7.75;1.13;;;;;;;27.25;50.80;100273.56;8369368;28;20067;-63
2023/07/19 12:51:16;;;;;;;13.02;1.40;;;;;;;27.64;50.22;100266.91;8368667;28;20029;-63
2023/07/19 12:55:16;;;;;;;3.78;1.00;;;;;;;27.82;50.73;100274.09;8368396;28;20543;-62
2023/07/19 12:59:17;;;;;;;6.50;1.20;;;;;;;27.22;50.52;100273.19;8370465;28;20033;-63
2023/07/19 13:03:17;;;;;;;11.95;1.45;;;;;;;27.18;49.76;100277.59;8372338;28;20513;-64
2023/07/19 13:07:18;;;;;;;5.50;1.10;;;;;;;26.98;49.65;100271.75;8377356;27;20040;-63
2023/07/19 13:11:19;;;;;;;5.00;0.80;;;;;;;27.00;49.57;100269.53;8368462;28;20760;-63
2023/07/19 13:15:19;;;;;;;4.72;0.80;;;;;;;26.95;50.22;100272.25;8366710;28;20044;-64
2023/07/19 13:19:20;;;;;;;5.55;0.90;;;;;;;27.07;50.90;100265.50;8367983;28;20052;-63
2023/07/19 13:23:20;;;;;;;127.95;11.65;;;;;;;26.76;51.83;100269.72;8368369;28;20218;-63
2023/07/19 13:27:21;;;;;;;5.40;1.20;;;;;;;27.27;51.50;100265.84;8367607;28;20032;-62
2023/07/19 13:31:21;;;;;;;7.68;1.15;;;;;;;27.48;50.47;100267.81;8373861;28;20815;-63
2023/07/19 13:35:22;;;;;;;2.63;0.70;;;;;;;27.73;50.58;100275.63;8368026;28;20359;-63
2023/07/19 13:39:22;;;;;;;23.50;1.80;;;;;;;27.66;50.28;100275.00;8366503;28;20639;-63
2023/07/19 13:43:23;;;;;;;4.15;0.95;;;;;;;27.31;49.22;100271.72;8367440;28;20283;-63
2023/07/19 13:47:23;;;;;;;9.20;0.77;;;;;;;27.00;49.07;100269.53;8369280;28;20064;-63
2023/07/19 13:51:24;;;;;;;10.70;1.10;;;;;;;26.92;49.36;100272.75;8369284;28;20506;-63
2023/07/19 13:55:24;;;;;;;8.18;0.88;;;;;;;26.82;49.56;100254.00;8367151;28;20651;-63
2023/07/19 13:59:24;;;;;;;8.27;0.70;;;;;;;27.24;48.90;100257.13;8368903;28;20167;-62
2023/07/19 14:03:25;;;;;;;9.88;1.33;;;;;;;26.99;48.86;100259.53;8375481;28;20032;-63
2023/07/19 14:07:25;;;;;;;5.00;0.93;;;;;;;26.98;49.42;100250.34;8379541;27;20132;-63
2023/07/19 14:11:26;;;;;;;2.22;0.80;;;;;;;26.90;50.25;100247.19;8372466;28;20589;-63
2023/07/19 14:15:26;;;;;;;34.55;2.83;;;;;;;26.86;49.76;100255.16;8365846;28;20044;-63
2023/07/19 14:19:27;;;;;;;2.95;1.10;;;;;;;26.96;50.16;100257.25;8368291;28;20037;-62
2023/07/19 14:23:28;;;;;;;2.75;0.80;;;;;;;27.08;49.26;100252.47;8368320;28;20060;-62
2023/07/19 14:27:28;;;;;;;10.38;1.05;;;;;;;27.14;49.52;100237.56;8368548;28;20040;-64
2023/07/19 14:31:29;;;;;;;4.03;0.73;;;;;;;27.13;49.98;100260.84;8371145;28;20028;-65
2023/07/19 14:35:30;;;;;;;10.82;1.05;;;;;;;27.16;49.50;100254.78;8366821;28;20037;-64
2023/07/19 14:39:31;;;;;;;1.85;0.75;;;;;;;26.92;49.76;100247.78;8370960;28;20040;-64
2023/07/19 14:43:31;;;;;;;6.90;0.85;;;;;;;27.29;50.52;100249.75;8366990;28;20554;-64
2023/07/19 14:47:33;;;;;;;3.80;0.60;;;;;;;27.03;50.18;100252.38;8366392;28;20067;-64
2023/07/19 14:51:33;;;;;;;4.38;0.80;;;;;;;27.28;49.98;100250.00;8366340;28;20044;-65
2023/07/19 14:55:33;;;;;;;2.00;0.60;;;;;;;26.96;50.58;100251.72;8390758;28;20047;-65
2023/07/19 14:59:34;;;;;;;1.90;0.60;;;;;;;27.19;51.21;100240.41;8404147;28;20054;-65
2023/07/19 15:03:34;;;;;;;1.70;0.52;;;;;;;26.51;51.70;100255.38;8405412;28;20047;-65
2023/07/19 15:07:35;;;;;;;5.15;0.70;;;;;;;26.10;53.26;100257.66;8405174;28;20086;-65
2023/07/19 15:11:36;;;;;;;1.73;0.63;;;;;;;26.13;53.72;100254.38;8408484;28;20042;-65
2023/07/19 15:15:36;;;;;;;2.20;0.70;;;;;;;26.51;53.58;100255.38;8400188;28;20067;-65
2023/07/19 15:19:36;;;;;;;4.45;0.95;;;;;;;26.60;53.31;100247.47;8405072;28;20131;-64
2023/07/19 15:23:37;;;;;;;3.92;0.68;;;;;;;26.29;52.14;100256.34;8404373;28;20186;-64
2023/07/19 15:27:37;;;;;;;4.22;0.80;;;;;;;26.20;53.30;100253.13;8406018;28;20036;-64
2023/07/19 15:31:38;;;;;;;3.72;0.52;;;;;;;25.93;54.62;100263.09;8407484;27;20032;-64
2023/07/19 15:35:39;;;;;;;5.38;0.63;;;;;;;25.65;55.85;100260.31;8404125;28;20516;-65
2023/07/19 15:39:39;;;;;;;6.82;0.88;;;;;;;25.65;56.48;100253.91;8414310;27;20055;-65
2023/07/19 15:43:43;;;;;;;6.55;0.60;;;;;;;25.71;57.11;100252.94;8399077;28;20394;-67
2023/07/19 15:47:44;;;;;;;4.50;0.63;;;;;;;25.96;58.26;100250.69;8407957;28;20044;-63
2023/07/19 15:51:44;;;;;;;1.67;0.50;;;;;;;26.12;55.78;100245.22;8405447;28;20032;-64
2023/07/19 15:55:44;;;;;;;3.50;0.90;;;;;;;26.28;54.62;100255.50;8406899;28;20043;-65
2023/07/19 15:59:45;;;;;;;1.83;0.98;;;;;;;26.19;55.13;100257.00;8408226;27;20546;-65
2023/07/19 16:03:45;;;;;;;48.58;3.13;;;;;;;25.94;54.82;100248.16;8407812;28;20040;-64
2023/07/19 16:07:46;;;;;;;11.60;1.02;;;;;;;25.87;55.30;100255.78;8403621;28;20037;-72
2023/07/19 16:11:47;;;;;;;3.80;0.70;;;;;;;25.76;55.71;100262.19;8406781;28;20121;-65
2023/07/19 16:15:47;;;;;;;2.95;0.98;;;;;;;25.86;56.84;100256.84;8399970;28;20110;-65
2023/07/19 16:19:48;;;;;;;1.75;1.00;;;;;;;25.75;56.69;100254.13;8401937;28;20044;-65
2023/07/19 16:23:48;;;;;;;2.53;1.00;;;;;;;25.88;57.46;100249.13;8404103;28;20037;-65
2023/07/19 16:27:49;;;;;;;3.80;0.80;;;;;;;25.44;57.33;100251.78;8403654;28;20281;-65
2023/07/19 16:31:49;;;;;;;8.77;1.15;;;;;;;25.07;57.72;100251.19;8427865;27;20047;-65
2023/07/19 16:35:49;;;;;;;2.22;0.93;;;;;;;25.05;57.52;100264.44;8403915;28;20045;-65
2023/07/19 16:39:51;;;;;;;5.65;1.55;;;;;;;24.99;57.12;100259.84;8403645;28;20126;-66
2023/07/19 16:43:53;;;;;;;4.28;1.13;;;;;;;24.94;58.34;100257.81;8402719;28;20040;-65
2023/07/19 16:47:58;;;;;;;3.10;0.93;;;;;;;25.04;58.07;100263.56;8396815;28;20041;-65
2023/07/19 16:51:58;;;;;;;2.38;0.80;;;;;;;24.95;57.09;100266.97;8401397;28;20046;-66
2023/07/19 16:55:59;;;;;;;6.57;1.55;;;;;;;24.84;57.89;100268.63;8401303;28;20041;-65
2023/07/19 16:59:59;;;;;;;5.45;1.00;;;;;;;24.72;58.79;100270.53;8408788;27;20601;-64
2023/07/19 17:04:00;;;;;;;5.15;1.13;;;;;;;24.63;58.20;100274.69;8402652;28;20585;-64
2023/07/19 17:08:03;;;;;;;5.43;1.30;;;;;;;24.74;58.52;100278.59;8403178;28;20054;-64
2023/07/19 17:12:04;;;;;;;1.73;1.08;;;;;;;24.85;58.47;100272.22;8402311;28;20041;-65
2023/07/19 17:16:04;;;;;;;3.00;1.20;;;;;;;24.92;57.26;100281.25;8398625;28;20272;-65
2023/07/19 17:20:05;;;;;;;3.38;1.45;;;;;;;24.92;57.12;100282.09;8400285;28;20050;-64
2023/07/19 17:24:06;;;;;;;2.17;1.52;;;;;;;24.71;57.48;100284.59;8400840;28;20036;-64
2023/07/19 17:28:06;;;;;;;3.10;1.40;;;;;;;24.52;57.68;100280.19;8400348;28;20036;-64
2023/07/19 17:32:07;;;;;;;3.28;1.17;;;;;;;24.39;58.39;100280.38;8403967;28;20062;-65
2023/07/19 17:36:07;;;;;;;4.68;0.95;;;;;;;24.38;59.21;100287.00;8400592;28;20036;-65
2023/07/19 17:40:09;;;;;;;3.72;1.25;;;;;;;24.51;58.60;100289.56;8400145;28;20036;-64
2023/07/19 17:44:09;;;;;;;4.25;1.10;;;;;;;24.57;58.75;100288.59;8402395;28;20124;-65
2023/07/19 17:48:10;;;;;;;2.58;1.15;;;;;;;24.47;59.75;100285.59;8398221;28;20045;-65
2023/07/19 17:52:10;;;;;;;6.28;1.42;;;;;;;24.26;59.92;100291.63;8401155;28;20040;-65
2023/07/19 17:56:11;;;;;;;2.33;1.40;;;;;;;24.13;61.22;100303.75;8398214;28;20044;-65
2023/07/19 18:00:12;;;;;;;3.30;1.25;;;;;;;23.96;62.23;100304.59;8407783;27;20028;-65
2023/07/19 18:04:15;;;;;;;2.95;1.30;;;;;;;23.86;63.07;100301.50;8400195;28;20591;-64
2023/07/19 18:08:16;;;;;;;4.95;1.35;;;;;;;23.74;63.18;100304.22;8400369;28;20490;-65
2023/07/19 18:12:16;;;;;;;3.35;1.10;;;;;;;23.67;63.84;100302.59;8401678;28;20043;-64
2023/07/19 18:16:17;;;;;;;3.35;1.30;;;;;;;23.63;63.73;100306.91;8397760;28;20093;-64
2023/07/19 18:20:19;;;;;;;4.70;1.23;;;;;;;23.50;63.97;100304.28;8399706;28;20055;-64
2023/07/19 18:24:20;;;;;;;3.92;1.25;;;;;;;23.46;63.65;100317.72;8399384;28;20071;-64
2023/07/19 18:28:20;;;;;;;2.95;1.25;;;;;;;23.39;63.70;100318.84;8400672;28;20039;-64
2023/07/19 18:32:21;;;;;;;3.15;1.45;;;;;;;23.38;63.62;100314.38;8405208;28;20043;-64
2023/07/19 18:36:21;;;;;;;4.03;1.02;;;;;;;23.38;63.13;100319.91;8406093;28;20040;-64
2023/07/19 18:40:22;;;;;;;6.30;1.60;;;;;;;23.35;63.49;100312.94;8407120;28;20036;-64